createdAt,value
2023-02-28T00:01:40.788Z,-2.26
2023-02-28T00:08:15.649Z,-2.22
2023-02-28T00:10:45.810Z,-2.22
2023-02-28T00:13:19.805Z,-2.22
2023-02-28T00:15:48.038Z,-2.21
2023-02-28T00:18:16.112Z,-2.20
2023-02-28T00:20:47.314Z,-2.20
2023-02-28T00:23:15.565Z,-2.22
2023-02-28T00:25:43.662Z,-2.25
2023-02-28T00:28:12.076Z,-2.26
2023-02-28T00:30:40.204Z,-2.27
2023-02-28T00:33:08.691Z,-2.28
2023-02-28T00:35:36.912Z,-2.27
2023-02-28T00:38:05.146Z,-2.25
2023-02-28T00:40:33.362Z,-2.24
2023-02-28T00:43:02.511Z,-2.25
2023-02-28T00:45:31.354Z,-2.26
2023-02-28T00:47:59.530Z,-2.29
2023-02-28T00:50:27.912Z,-2.30
2023-02-28T00:52:57.024Z,-2.32
2023-02-28T00:55:25.559Z,-2.35
2023-02-28T00:57:53.716Z,-2.36
2023-02-28T01:00:22.028Z,-2.39
2023-02-28T01:02:52.138Z,-2.41
2023-02-28T01:05:20.738Z,-2.44
2023-02-28T01:07:49.364Z,-2.44
2023-02-28T01:10:17.695Z,-2.44
2023-02-28T01:12:46.417Z,-2.44
2023-02-28T01:15:17.645Z,-2.44
2023-02-28T01:17:50.212Z,-2.42
2023-02-28T01:20:18.888Z,-2.40
2023-02-28T01:22:47.668Z,-2.41
2023-02-28T01:25:17.189Z,-2.43
2023-02-28T01:27:46.566Z,-2.44
2023-02-28T01:30:16.488Z,-2.44
2023-02-28T01:32:45.593Z,-2.45
2023-02-28T01:35:13.759Z,-2.47
2023-02-28T01:37:42.971Z,-2.47
2023-02-28T01:40:11.915Z,-2.45
2023-02-28T01:42:40.273Z,-2.44
2023-02-28T01:45:27.677Z,-2.44
2023-02-28T01:47:58.920Z,-2.46
2023-02-28T01:50:29.093Z,-2.47
2023-02-28T01:52:58.302Z,-2.47
2023-02-28T01:55:29.830Z,-2.48
2023-02-28T01:58:03.209Z,-2.47
2023-02-28T02:00:31.919Z,-2.46
2023-02-28T02:03:02.459Z,-2.43
2023-02-28T02:05:35.520Z,-2.44
2023-02-28T02:08:07.164Z,-2.44
2023-02-28T02:10:37.593Z,-2.43
2023-02-28T02:13:23.307Z,-2.42
2023-02-28T02:16:20.801Z,-2.43
2023-02-28T02:18:59.030Z,-2.43
2023-02-28T02:21:39.267Z,-2.42
2023-02-28T02:24:29.009Z,-2.41
2023-02-28T02:27:21.008Z,-2.38
2023-02-28T02:30:18.578Z,-2.38
2023-02-28T02:33:05.842Z,-2.43
2023-02-28T02:35:36.612Z,-2.50
2023-02-28T02:38:30.516Z,-2.55
2023-02-28T02:41:04.712Z,-2.58
2023-02-28T02:43:39.234Z,-2.58
2023-02-28T02:46:13.687Z,-2.59
2023-02-28T02:48:41.923Z,-2.59
2023-02-28T02:51:18.903Z,-2.60
2023-02-28T02:53:50.496Z,-2.61
2023-02-28T02:56:20.230Z,-2.60
2023-02-28T02:58:48.654Z,-2.61
2023-02-28T03:01:28.999Z,-2.63
2023-02-28T03:03:58.091Z,-2.62
2023-02-28T03:06:27.057Z,-2.61
2023-02-28T03:08:55.276Z,-2.61
2023-02-28T03:11:24.439Z,-2.61
2023-02-28T03:14:35.668Z,-2.58
2023-02-28T03:17:03.749Z,-2.59
2023-02-28T03:19:43.637Z,-2.58
2023-02-28T03:22:35.203Z,-2.57
2023-02-28T03:25:08.723Z,-2.57
2023-02-28T03:27:59.539Z,-2.60
2023-02-28T03:30:47.139Z,-2.60
2023-02-28T03:33:25.538Z,-2.59
2023-02-28T03:36:02.752Z,-2.61
2023-02-28T03:38:33.199Z,-2.64
2023-02-28T03:41:18.829Z,-2.62
2023-02-28T03:43:51.977Z,-2.59
2023-02-28T03:46:22.298Z,-2.56
2023-02-28T03:48:53.738Z,-2.54
2023-02-28T03:51:22.519Z,-2.53
2023-02-28T03:53:55.703Z,-2.54
2023-02-28T03:56:27.357Z,-2.58
2023-02-28T03:58:56.882Z,-2.58
2023-02-28T04:01:36.770Z,-2.58
2023-02-28T04:04:05.348Z,-2.59
2023-02-28T04:06:35.393Z,-2.60
2023-02-28T04:09:04.972Z,-2.60
2023-02-28T04:11:53.492Z,-2.63
2023-02-28T04:14:21.709Z,-2.64
2023-02-28T04:16:49.882Z,-2.67
2023-02-28T04:19:18.023Z,-2.69
2023-02-28T04:21:47.999Z,-2.70
2023-02-28T04:24:21.562Z,-2.72
2023-02-28T04:26:54.255Z,-2.74
2023-02-28T04:29:26.260Z,-2.74
2023-02-28T04:31:55.091Z,-2.77
2023-02-28T04:34:24.619Z,-2.80
2023-02-28T04:37:10.378Z,-2.83
2023-02-28T04:39:41.333Z,-2.86
2023-02-28T04:42:09.874Z,-2.85
2023-02-28T04:44:37.959Z,-2.84
2023-02-28T04:47:06.386Z,-2.81
2023-02-28T04:49:34.749Z,-2.80
2023-02-28T04:52:03.130Z,-2.81
2023-02-28T04:54:31.902Z,-2.85
2023-02-28T04:57:00.103Z,-2.86
2023-02-28T04:59:34.916Z,-2.88
2023-02-28T05:02:08.129Z,-2.92
2023-02-28T05:04:37.063Z,-2.94
2023-02-28T05:07:05.742Z,-2.95
2023-02-28T05:09:36.971Z,-2.95
2023-02-28T05:12:07.790Z,-2.97
2023-02-28T05:14:38.202Z,-3.01
2023-02-28T05:17:06.477Z,-3.01
2023-02-28T05:19:34.633Z,-2.98
2023-02-28T05:22:03.713Z,-2.96
2023-02-28T05:24:41.108Z,-2.96
2023-02-28T05:27:09.894Z,-2.96
2023-02-28T05:29:42.739Z,-2.96
2023-02-28T05:32:12.339Z,-2.93
2023-02-28T05:34:40.809Z,-2.90
2023-02-28T05:37:15.479Z,-2.89
2023-02-28T05:39:43.901Z,-2.91
2023-02-28T05:42:14.589Z,-2.91
2023-02-28T05:44:43.207Z,-2.91
2023-02-28T05:47:11.916Z,-2.91
2023-02-28T05:49:40.390Z,-2.91
2023-02-28T05:52:08.722Z,-2.90
2023-02-28T05:54:37.979Z,-2.87
2023-02-28T05:57:15.487Z,-2.85
2023-02-28T05:59:50.956Z,-2.82
2023-02-28T06:02:19.295Z,-2.81
2023-02-28T06:04:48.366Z,-2.86
2023-02-28T06:07:18.578Z,-2.88
2023-02-28T06:09:47.558Z,-2.90
2023-02-28T06:12:16.528Z,-2.91
2023-02-28T06:14:45.150Z,-2.90
2023-02-28T06:17:17.956Z,-2.91
2023-02-28T06:19:46.224Z,-2.92
2023-02-28T06:22:14.759Z,-2.93
2023-02-28T06:24:43.038Z,-2.91
2023-02-28T06:27:11.431Z,-2.88
2023-02-28T06:29:42.677Z,-2.86
2023-02-28T06:32:11.055Z,-2.84
2023-02-28T06:34:40.450Z,-2.82
2023-02-28T06:37:08.672Z,-2.80
2023-02-28T06:39:40.329Z,-2.79
2023-02-28T06:42:09.083Z,-2.79
2023-02-28T06:44:37.277Z,-2.82
2023-02-28T06:47:06.304Z,-2.83
2023-02-28T06:49:38.501Z,-2.84
2023-02-28T06:52:08.137Z,-2.82
2023-02-28T06:54:37.683Z,-2.80
2023-02-28T06:57:05.966Z,-2.80
2023-02-28T06:59:34.271Z,-2.80
2023-02-28T07:02:04.157Z,-2.76
2023-02-28T07:04:32.837Z,-2.71
2023-02-28T07:07:01.321Z,-2.67
2023-02-28T07:09:30.799Z,-2.67
2023-02-28T07:11:58.956Z,-2.69
2023-02-28T07:14:27.285Z,-2.70
2023-02-28T07:16:55.749Z,-2.70
2023-02-28T07:19:24.003Z,-2.71
2023-02-28T07:21:52.168Z,-2.71
2023-02-28T07:24:20.350Z,-2.69
2023-02-28T07:26:48.787Z,-2.65
2023-02-28T07:29:17.288Z,-2.63
2023-02-28T07:31:48.335Z,-2.62
2023-02-28T07:34:16.784Z,-2.59
2023-02-28T07:36:44.912Z,-2.58
2023-02-28T07:39:13.232Z,-2.56
2023-02-28T07:41:44.685Z,-2.53
2023-02-28T07:44:13.166Z,-2.53
2023-02-28T07:46:41.543Z,-2.55
2023-02-28T07:49:10.895Z,-2.57
2023-02-28T07:51:39.714Z,-2.58
2023-02-28T07:54:08.858Z,-2.61
2023-02-28T07:56:38.255Z,-2.63
2023-02-28T07:59:10.387Z,-2.63
2023-02-28T08:01:43.400Z,-2.65
2023-02-28T08:04:12.256Z,-2.60
2023-02-28T08:06:40.852Z,-2.58
2023-02-28T08:09:17.021Z,-2.59
2023-02-28T08:11:47.614Z,-2.61
2023-02-28T08:14:16.933Z,-2.62
2023-02-28T08:16:47.553Z,-2.63
2023-02-28T08:19:16.018Z,-2.62
2023-02-28T08:21:44.391Z,-2.61
2023-02-28T08:24:12.586Z,-2.58
2023-02-28T08:26:40.934Z,-2.54
2023-02-28T08:29:09.170Z,-2.50
2023-02-28T08:31:37.717Z,-2.47
2023-02-28T08:34:07.695Z,-2.43
2023-02-28T08:36:36.183Z,-2.39
2023-02-28T08:39:04.594Z,-2.39
2023-02-28T08:41:34.390Z,-2.34
2023-02-28T08:44:02.816Z,-2.29
2023-02-28T08:46:31.276Z,-2.24
2023-02-28T08:49:03.016Z,-2.17
2023-02-28T08:51:31.866Z,-2.10
2023-02-28T08:54:01.075Z,-2.06
2023-02-28T08:56:34.425Z,-1.99
2023-02-28T08:59:02.655Z,-1.91
2023-02-28T09:01:31.362Z,-1.87
2023-02-28T09:04:00.732Z,-1.81
2023-02-28T09:06:29.941Z,-1.81
2023-02-28T09:09:02.786Z,-1.84
2023-02-28T09:11:31.196Z,-1.83
2023-02-28T09:14:06.616Z,-1.81
2023-02-28T09:16:36.250Z,-1.78
2023-02-28T09:19:04.715Z,-1.74
2023-02-28T09:21:35.095Z,-1.74
2023-02-28T09:24:03.638Z,-1.70
2023-02-28T09:26:38.847Z,-1.61
2023-02-28T09:29:17.911Z,-1.49
2023-02-28T09:31:46.420Z,-1.42
2023-02-28T09:34:15.005Z,-1.40
2023-02-28T09:36:45.570Z,-1.38
2023-02-28T09:39:16.755Z,-1.34
2023-02-28T09:41:51.544Z,-1.28
2023-02-28T09:44:26.166Z,-1.22
2023-02-28T09:47:26.950Z,-1.20
2023-02-28T09:49:55.877Z,-1.20
2023-02-28T09:52:29.680Z,-1.27
2023-02-28T09:55:21.308Z,-1.31
2023-02-28T09:57:50.311Z,-1.36
2023-02-28T10:00:40.455Z,-1.38
2023-02-28T10:03:24.256Z,-1.35
2023-02-28T10:06:11.249Z,-1.29
2023-02-28T10:08:59.498Z,-1.28
2023-02-28T10:11:32.719Z,-1.32
2023-02-28T10:14:15.553Z,-1.29
2023-02-28T10:17:00.742Z,-1.21
2023-02-28T10:19:41.351Z,-1.19
2023-02-28T10:22:16.528Z,-1.13
2023-02-28T10:24:45.513Z,-1.11
2023-02-28T10:27:23.241Z,-1.16
2023-02-28T10:29:57.215Z,-1.21
2023-02-28T10:32:31.682Z,-1.23
2023-02-28T10:35:10.423Z,-1.20
2023-02-28T10:37:39.913Z,-1.18
2023-02-28T10:40:18.912Z,-1.23
2023-02-28T10:43:20.930Z,-1.27
2023-02-28T10:45:55.552Z,-1.25
2023-02-28T10:48:28.110Z,-1.21
2023-02-28T10:50:59.067Z,-1.16
2023-02-28T10:53:52.681Z,-1.10
2023-02-28T10:56:27.202Z,-1.02
2023-02-28T10:58:58.738Z,-0.97
2023-02-28T11:01:33.663Z,-0.95
2023-02-28T11:04:02.767Z,-0.96
2023-02-28T11:06:35.684Z,-0.95
2023-02-28T11:09:05.621Z,-0.92
2023-02-28T11:11:44.510Z,-0.85
2023-02-28T11:14:29.220Z,-0.79
2023-02-28T11:17:00.614Z,-0.73
2023-02-28T11:19:31.670Z,-0.71
2023-02-28T11:22:03.947Z,-0.77
2023-02-28T11:24:35.376Z,-0.81
2023-02-28T11:27:04.197Z,-0.86
2023-02-28T11:29:33.757Z,-0.85
2023-02-28T11:32:04.656Z,-0.79
2023-02-28T11:34:33.449Z,-0.77
2023-02-28T11:37:02.359Z,-0.79
2023-02-28T11:39:31.391Z,-0.81
2023-02-28T11:42:17.820Z,-0.80
2023-02-28T11:45:04.705Z,-0.83
2023-02-28T11:47:44.508Z,-0.86
2023-02-28T11:50:42.525Z,-0.89
2023-02-28T11:53:34.924Z,-0.91
2023-02-28T11:56:13.765Z,-0.90
2023-02-28T11:58:48.029Z,-0.83
2023-02-28T12:01:37.608Z,-0.74
2023-02-28T12:04:12.874Z,-0.64
2023-02-28T12:06:52.918Z,-0.59
2023-02-28T12:09:42.545Z,-0.57
2023-02-28T12:12:41.575Z,-0.53
2023-02-28T12:15:25.992Z,-0.48
2023-02-28T12:18:01.667Z,-0.43
2023-02-28T12:20:39.569Z,-0.38
2023-02-28T12:23:32.493Z,-0.34
2023-02-28T12:26:06.583Z,-0.31
2023-02-28T12:28:38.142Z,-0.28
2023-02-28T12:31:10.932Z,-0.25
2023-02-28T12:33:49.533Z,-0.21
2023-02-28T12:36:20.465Z,-0.16
2023-02-28T12:38:57.577Z,-0.12
2023-02-28T12:41:25.686Z,-0.10
2023-02-28T12:44:01.704Z,-0.04
2023-02-28T12:46:32.143Z,0.03
2023-02-28T12:49:02.475Z,0.05
2023-02-28T12:51:31.664Z,0.07
2023-02-28T12:54:15.576Z,0.10
2023-02-28T12:57:04.989Z,0.15
2023-02-28T12:59:40.697Z,0.15
2023-02-28T13:02:17.537Z,0.14
2023-02-28T13:04:57.656Z,0.14
2023-02-28T13:07:50.743Z,0.15
2023-02-28T13:10:19.918Z,0.19
2023-02-28T13:12:52.783Z,0.19
2023-02-28T13:15:25.242Z,0.19
2023-02-28T13:17:54.961Z,0.19
2023-02-28T13:20:25.958Z,0.18
2023-02-28T13:22:58.289Z,0.20
2023-02-28T13:25:26.639Z,0.21
2023-02-28T13:28:01.940Z,0.20
2023-02-28T13:30:52.991Z,0.21
2023-02-28T13:33:31.277Z,0.24
2023-02-28T13:36:27.101Z,0.26
2023-02-28T13:38:59.094Z,0.24
2023-02-28T13:41:30.752Z,0.23
2023-02-28T13:44:12.789Z,0.22
2023-02-28T13:46:48.592Z,0.21
2023-02-28T13:49:30.179Z,0.18
2023-02-28T13:52:07.400Z,0.18
2023-02-28T13:54:57.506Z,0.19
2023-02-28T13:57:29.120Z,0.19
2023-02-28T14:00:32.808Z,0.20
2023-02-28T14:03:10.586Z,0.24
2023-02-28T14:05:39.914Z,0.28
2023-02-28T14:08:22.746Z,0.31
2023-02-28T14:11:04.160Z,0.34
2023-02-28T14:13:48.484Z,0.35
2023-02-28T14:16:21.380Z,0.36
2023-02-28T14:18:55.994Z,0.37
2023-02-28T14:21:29.910Z,0.37
2023-02-28T14:24:16.989Z,0.39
2023-02-28T14:26:57.404Z,0.41
2023-02-28T14:29:44.029Z,0.43
2023-02-28T14:32:31.236Z,0.45
2023-02-28T14:35:27.527Z,0.49
2023-02-28T14:37:56.220Z,0.54
2023-02-28T14:40:34.387Z,0.60
2023-02-28T14:43:04.506Z,0.63
2023-02-28T14:45:35.679Z,0.64
2023-02-28T14:48:04.281Z,0.65
2023-02-28T14:50:37.084Z,0.63
2023-02-28T14:53:05.785Z,0.59
2023-02-28T14:55:36.452Z,0.56
2023-02-28T14:58:07.872Z,0.52
2023-02-28T15:00:48.192Z,0.47
2023-02-28T15:03:24.749Z,0.42
2023-02-28T15:05:55.208Z,0.37
2023-02-28T15:08:23.653Z,0.34
2023-02-28T15:10:52.931Z,0.33
2023-02-28T15:13:46.438Z,0.31
2023-02-28T15:16:18.585Z,0.30
2023-02-28T15:18:52.052Z,0.28
2023-02-28T15:21:23.643Z,0.25
2023-02-28T15:24:03.321Z,0.23
2023-02-28T15:26:34.150Z,0.20
2023-02-28T15:29:29.459Z,0.16
2023-02-28T15:32:05.851Z,0.10
2023-02-28T15:34:44.271Z,0.04
2023-02-28T15:37:34.451Z,-0.02
2023-02-28T15:40:29.884Z,-0.07
2023-02-28T15:43:07.213Z,-0.13
2023-02-28T15:45:50.871Z,-0.17
2023-02-28T15:48:32.512Z,-0.22
2023-02-28T15:51:07.025Z,-0.27
2023-02-28T15:53:58.193Z,-0.31
2023-02-28T15:56:34.325Z,-0.36
2023-02-28T15:59:05.106Z,-0.40
2023-02-28T16:01:34.988Z,-0.42
2023-02-28T16:04:12.678Z,-0.44
2023-02-28T16:06:43.430Z,-0.46
2023-02-28T16:09:17.322Z,-0.48
2023-02-28T16:11:50.728Z,-0.49
2023-02-28T16:14:21.164Z,-0.50
2023-02-28T16:16:51.001Z,-0.52
2023-02-28T16:19:19.926Z,-0.54
2023-02-28T16:21:52.426Z,-0.55
2023-02-28T16:24:20.767Z,-0.57
2023-02-28T16:26:49.698Z,-0.59
2023-02-28T16:29:30.081Z,-0.60
2023-02-28T16:31:58.552Z,-0.63
2023-02-28T16:34:27.496Z,-0.65
2023-02-28T16:36:56.802Z,-0.67
2023-02-28T16:39:25.092Z,-0.70
2023-02-28T16:41:53.461Z,-0.72
2023-02-28T16:44:31.631Z,-0.74
2023-02-28T16:47:01.332Z,-0.77
2023-02-28T16:49:29.654Z,-0.79
2023-02-28T16:51:57.900Z,-0.80
2023-02-28T16:54:26.462Z,-0.81
2023-02-28T16:56:54.904Z,-0.82
2023-02-28T16:59:25.220Z,-0.83
2023-02-28T17:01:58.928Z,-0.85
2023-02-28T17:04:27.759Z,-0.88
2023-02-28T17:06:57.567Z,-0.90
2023-02-28T17:09:36.719Z,-0.93
2023-02-28T17:12:10.472Z,-0.95
2023-02-28T17:14:41.629Z,-0.96
2023-02-28T17:17:16.105Z,-1.00
2023-02-28T17:19:47.446Z,-1.01
2023-02-28T17:22:16.432Z,-1.04
2023-02-28T17:24:47.170Z,-1.07
2023-02-28T17:27:17.179Z,-1.11
2023-02-28T17:29:45.765Z,-1.13
2023-02-28T17:32:18.709Z,-1.15
2023-02-28T17:34:47.502Z,-1.17
2023-02-28T17:37:17.448Z,-1.19
2023-02-28T17:39:45.730Z,-1.22
2023-02-28T17:42:17.149Z,-1.24
2023-02-28T17:44:45.379Z,-1.29
2023-02-28T17:47:13.968Z,-1.32
2023-02-28T17:49:42.851Z,-1.34
2023-02-28T17:52:11.818Z,-1.36
2023-02-28T17:54:40.889Z,-1.38
2023-02-28T17:57:14.103Z,-1.40
2023-02-28T17:59:43.231Z,-1.43
2023-02-28T18:02:13.719Z,-1.45
2023-02-28T18:04:47.774Z,-1.47
2023-02-28T18:07:16.811Z,-1.50
2023-02-28T18:09:45.009Z,-1.52
2023-02-28T18:12:13.524Z,-1.54
2023-02-28T18:14:43.572Z,-1.56
2023-02-28T18:17:13.362Z,-1.57
2023-02-28T18:19:44.365Z,-1.58
2023-02-28T18:22:12.454Z,-1.60
2023-02-28T18:24:41.179Z,-1.62
2023-02-28T18:27:11.225Z,-1.63
2023-02-28T18:29:40.882Z,-1.66
2023-02-28T18:32:10.365Z,-1.68
2023-02-28T18:34:38.755Z,-1.70
2023-02-28T18:37:07.376Z,-1.72
2023-02-28T18:39:35.540Z,-1.74
2023-02-28T18:42:04.615Z,-1.77
2023-02-28T18:44:33.228Z,-1.78
2023-02-28T18:47:02.667Z,-1.80
2023-02-28T18:49:35.772Z,-1.82
2023-02-28T18:52:04.397Z,-1.83
2023-02-28T18:54:33.736Z,-1.85
2023-02-28T18:57:02.028Z,-1.87
2023-02-28T18:59:31.673Z,-1.90
2023-02-28T19:01:59.887Z,-1.90
2023-02-28T19:04:28.308Z,-1.91
2023-02-28T19:07:04.549Z,-1.93
2023-02-28T19:09:33.684Z,-1.94
2023-02-28T19:12:02.022Z,-1.96
2023-02-28T19:14:35.772Z,-1.96
2023-02-28T19:17:04.104Z,-1.97
2023-02-28T19:19:32.446Z,-1.98
2023-02-28T19:22:00.975Z,-2.00
2023-02-28T19:24:30.006Z,-2.01
2023-02-28T19:27:00.218Z,-2.01
2023-02-28T19:29:28.714Z,-2.02
2023-02-28T19:31:59.096Z,-2.02
2023-02-28T19:34:27.496Z,-2.01
2023-02-28T19:36:56.236Z,-2.01
2023-02-28T19:39:24.466Z,-2.02
2023-02-28T19:41:52.670Z,-2.02
2023-02-28T19:44:20.840Z,-2.02
2023-02-28T19:46:49.144Z,-2.03
2023-02-28T19:49:18.705Z,-2.04
2023-02-28T19:51:47.414Z,-2.05
2023-02-28T19:54:16.304Z,-2.05
2023-02-28T19:56:44.853Z,-2.05
2023-02-28T19:59:21.514Z,-2.06
2023-02-28T20:01:56.911Z,-2.07
2023-02-28T20:04:25.930Z,-2.08
2023-02-28T20:06:54.249Z,-2.09
2023-02-28T20:09:22.561Z,-2.10
2023-02-28T20:11:51.203Z,-2.11
2023-02-28T20:14:19.496Z,-2.12
2023-02-28T20:16:51.922Z,-2.13
2023-02-28T20:19:20.558Z,-2.14
2023-02-28T20:21:49.536Z,-2.15
2023-02-28T20:24:18.321Z,-2.16
2023-02-28T20:26:47.634Z,-2.17
2023-02-28T20:29:22.622Z,-2.19
2023-02-28T20:31:51.120Z,-2.21
2023-02-28T20:34:20.140Z,-2.24
2023-02-28T20:36:48.590Z,-2.26
2023-02-28T20:39:17.242Z,-2.27
2023-02-28T20:41:45.965Z,-2.27
2023-02-28T20:44:16.282Z,-2.28
2023-02-28T20:46:46.340Z,-2.28
2023-02-28T20:49:16.029Z,-2.28
2023-02-28T20:51:45.523Z,-2.28
2023-02-28T20:54:14.199Z,-2.28
2023-02-28T20:56:42.374Z,-2.27
2023-02-28T20:59:11.832Z,-2.26
2023-02-28T21:01:42.890Z,-2.24
2023-02-28T21:04:11.184Z,-2.23
2023-02-28T21:06:40.687Z,-2.23
2023-02-28T21:09:11.491Z,-2.23
2023-02-28T21:11:39.988Z,-2.24
2023-02-28T21:14:11.452Z,-2.24
2023-02-28T21:16:40.749Z,-2.24
2023-02-28T21:19:09.897Z,-2.24
2023-02-28T21:21:40.785Z,-2.24
2023-02-28T21:24:13.729Z,-2.25
2023-02-28T21:26:42.483Z,-2.24
2023-02-28T21:29:13.305Z,-2.23
2023-02-28T21:31:41.976Z,-2.21
2023-02-28T21:34:11.294Z,-2.19
2023-02-28T21:36:41.781Z,-2.18
2023-02-28T21:39:14.978Z,-2.18
2023-02-28T21:41:43.701Z,-2.18
2023-02-28T21:44:18.792Z,-2.18
2023-02-28T21:46:48.598Z,-2.18
2023-02-28T21:49:17.735Z,-2.16
2023-02-28T21:51:49.391Z,-2.14
2023-02-28T21:54:18.953Z,-2.13
2023-02-28T21:56:47.636Z,-2.13
2023-02-28T21:59:16.022Z,-2.12
2023-02-28T22:01:44.925Z,-2.11
2023-02-28T22:04:22.142Z,-2.09
2023-02-28T22:06:54.520Z,-2.08
2023-02-28T22:09:23.177Z,-2.05
2023-02-28T22:11:52.837Z,-2.04
2023-02-28T22:14:22.260Z,-2.03
2023-02-28T22:16:55.134Z,-2.02
2023-02-28T22:19:24.898Z,-2.01
2023-02-28T22:21:54.191Z,-2.00
2023-02-28T22:24:24.710Z,-1.99
2023-02-28T22:26:53.501Z,-1.99
2023-02-28T22:29:21.870Z,-2.00
2023-02-28T22:31:50.823Z,-2.00
2023-02-28T22:34:20.481Z,-1.99
2023-02-28T22:36:49.954Z,-2.00
2023-02-28T22:39:18.286Z,-1.99
2023-02-28T22:41:46.482Z,-1.99
2023-02-28T22:44:23.138Z,-1.99
2023-02-28T22:46:54.370Z,-1.99
2023-02-28T22:49:22.764Z,-2.01
2023-02-28T22:51:51.297Z,-2.02
2023-02-28T22:54:19.929Z,-2.02
2023-02-28T22:56:49.944Z,-2.04
2023-02-28T22:59:18.838Z,-2.05
2023-02-28T23:01:47.889Z,-2.07
2023-02-28T23:04:16.281Z,-2.08
2023-02-28T23:06:44.897Z,-2.09
2023-02-28T23:09:21.736Z,-2.10
2023-02-28T23:11:51.370Z,-2.13
2023-02-28T23:14:20.151Z,-2.13
2023-02-28T23:16:56.940Z,-2.15
2023-02-28T23:19:29.907Z,-2.17
2023-02-28T23:21:59.601Z,-2.18
2023-02-28T23:24:29.832Z,-2.16
2023-02-28T23:26:59.064Z,-2.16
2023-02-28T23:29:29.345Z,-2.16
2023-02-28T23:31:58.468Z,-2.16
2023-02-28T23:34:30.627Z,-2.16
2023-02-28T23:37:02.064Z,-2.16
2023-02-28T23:39:31.488Z,-2.16
2023-02-28T23:41:59.816Z,-2.16
2023-02-28T23:44:28.189Z,-2.17
2023-02-28T23:46:56.351Z,-2.17
2023-02-28T23:49:24.717Z,-2.19
2023-02-28T23:51:54.544Z,-2.19
2023-02-28T23:54:25.206Z,-2.20
2023-02-28T23:56:54.230Z,-2.22
2023-02-28T23:59:22.821Z,-2.23
